createdAt,value
2022-11-21T00:01:21.634Z,1.20
2022-11-21T00:03:48.895Z,1.27
2022-11-21T00:06:16.872Z,1.00
2022-11-21T00:08:44.703Z,0.90
2022-11-21T00:11:11.803Z,1.10
2022-11-21T00:13:39.658Z,1.10
2022-11-21T00:16:13.155Z,1.30
2022-11-21T00:18:40.310Z,1.10
2022-11-21T00:21:19.357Z,1.10
2022-11-21T00:23:48.487Z,1.43
2022-11-21T00:26:16.685Z,1.10
2022-11-21T00:28:43.955Z,1.33
2022-11-21T00:31:22.717Z,1.30
2022-11-21T00:33:49.722Z,1.13
2022-11-21T00:36:16.806Z,1.50
2022-11-21T00:38:43.689Z,2.10
2022-11-21T00:41:10.574Z,1.37
2022-11-21T00:43:37.680Z,1.40
2022-11-21T00:46:05.248Z,1.57
2022-11-21T00:48:32.614Z,1.63
2022-11-21T00:51:03.054Z,1.70
2022-11-21T00:53:30.462Z,1.50
2022-11-21T00:55:58.115Z,1.20
2022-11-21T00:58:25.387Z,1.80
2022-11-21T01:00:52.441Z,1.43
2022-11-21T01:03:19.482Z,1.47
2022-11-21T01:05:46.400Z,1.67
2022-11-21T01:08:13.307Z,2.03
2022-11-21T01:10:40.218Z,1.60
2022-11-21T01:13:07.283Z,1.33
2022-11-21T01:15:34.901Z,1.60
2022-11-21T01:18:01.858Z,1.30
2022-11-21T01:20:28.752Z,1.17
2022-11-21T01:22:55.659Z,1.30
2022-11-21T01:25:22.599Z,1.53
2022-11-21T01:27:49.460Z,1.37
2022-11-21T01:30:17.384Z,1.43
2022-11-21T01:32:48.178Z,1.57
2022-11-21T01:35:17.239Z,1.03
2022-11-21T01:37:48.357Z,1.30
2022-11-21T01:40:16.158Z,1.07
2022-11-21T01:42:57.939Z,1.20
2022-11-21T01:46:08.486Z,1.30
2022-11-21T01:48:55.294Z,1.20
2022-11-21T01:51:39.623Z,1.30
2022-11-21T01:54:29.913Z,1.00
2022-11-21T01:57:19.494Z,1.00
2022-11-21T01:59:58.416Z,1.20
2022-11-21T02:02:30.993Z,1.10
2022-11-21T02:05:00.269Z,1.10
2022-11-21T02:07:30.947Z,1.30
2022-11-21T02:10:03.377Z,1.10
2022-11-21T02:12:53.370Z,1.27
2022-11-21T02:15:24.524Z,1.00
2022-11-21T02:17:51.662Z,0.90
2022-11-21T02:20:23.059Z,1.60
2022-11-21T02:23:18.680Z,1.00
2022-11-21T02:25:45.750Z,0.90
2022-11-21T02:28:16.029Z,1.07
2022-11-21T02:30:43.902Z,0.80
2022-11-21T02:33:12.326Z,1.40
2022-11-21T02:35:39.979Z,1.20
2022-11-21T02:38:29.163Z,1.10
2022-11-21T02:41:08.757Z,1.13
2022-11-21T02:43:46.521Z,0.73
2022-11-21T02:46:13.588Z,0.87
2022-11-21T02:48:40.662Z,0.97
2022-11-21T02:51:07.802Z,0.70
2022-11-21T02:53:34.734Z,0.80
2022-11-21T02:56:02.682Z,0.73
2022-11-21T02:58:29.786Z,0.70
2022-11-21T03:00:56.803Z,0.90
2022-11-21T03:03:23.815Z,0.70
2022-11-21T03:05:50.810Z,0.60
2022-11-21T03:08:17.657Z,0.70
2022-11-21T03:10:45.642Z,0.90
2022-11-21T03:13:12.616Z,0.77
2022-11-21T03:15:39.545Z,0.70
2022-11-21T03:18:06.419Z,0.90
2022-11-21T03:20:35.301Z,0.80
2022-11-21T03:23:02.824Z,0.80
2022-11-21T03:25:29.835Z,1.10
2022-11-21T03:27:56.897Z,1.03
2022-11-21T03:30:26.032Z,1.13
2022-11-21T03:32:56.732Z,0.80
2022-11-21T03:35:24.498Z,0.77
2022-11-21T03:37:51.447Z,1.00
2022-11-21T03:40:18.426Z,0.70
2022-11-21T03:42:45.328Z,0.80
2022-11-21T03:45:12.274Z,0.70
2022-11-21T03:47:39.292Z,1.00
2022-11-21T03:50:06.993Z,1.00
2022-11-21T03:52:34.009Z,0.80
2022-11-21T03:55:00.927Z,1.00
2022-11-21T03:57:27.818Z,1.00
2022-11-21T03:59:54.755Z,0.70
2022-11-21T04:02:21.663Z,0.83
2022-11-21T04:04:48.537Z,0.70
2022-11-21T04:07:16.398Z,0.80
2022-11-21T04:09:43.386Z,0.70
2022-11-21T04:12:10.369Z,1.00
2022-11-21T04:14:38.383Z,0.80
2022-11-21T04:17:05.438Z,0.93
2022-11-21T04:19:32.420Z,0.90
2022-11-21T04:21:59.340Z,0.77
2022-11-21T04:24:26.562Z,0.80
2022-11-21T04:26:55.654Z,1.07
2022-11-21T04:29:22.637Z,0.83
2022-11-21T04:31:49.589Z,1.03
2022-11-21T04:34:16.557Z,1.00
2022-11-21T04:36:43.540Z,1.07
2022-11-21T04:39:10.565Z,1.00
2022-11-21T04:41:37.533Z,1.10
2022-11-21T04:44:04.761Z,0.80
2022-11-21T04:46:31.637Z,0.90
2022-11-21T04:48:58.604Z,1.00
2022-11-21T04:51:25.466Z,0.90
2022-11-21T04:53:52.400Z,0.70
2022-11-21T04:56:19.322Z,0.97
2022-11-21T04:58:46.263Z,1.30
2022-11-21T05:01:13.304Z,1.37
2022-11-21T05:03:40.394Z,1.07
2022-11-21T05:06:07.269Z,1.00
2022-11-21T05:08:34.178Z,1.20
2022-11-21T05:11:21.298Z,0.90
2022-11-21T05:13:48.177Z,1.40
2022-11-21T05:16:15.631Z,1.37
2022-11-21T05:18:42.598Z,1.10
2022-11-21T05:21:09.492Z,2.00
2022-11-21T05:23:36.577Z,1.30
2022-11-21T05:26:03.538Z,2.70
2022-11-21T05:28:30.547Z,1.30
2022-11-21T05:30:57.455Z,1.20
2022-11-21T05:33:24.339Z,1.00
2022-11-21T05:35:51.219Z,1.20
2022-11-21T05:38:18.075Z,1.73
2022-11-21T05:40:44.958Z,1.13
2022-11-21T05:43:31.307Z,1.17
2022-11-21T05:45:58.342Z,1.87
2022-11-21T05:48:25.286Z,2.00
2022-11-21T05:50:52.391Z,1.20
2022-11-21T05:53:19.408Z,0.93
2022-11-21T05:55:46.563Z,1.13
2022-11-21T05:58:13.934Z,1.20
2022-11-21T06:00:40.819Z,1.17
2022-11-21T06:03:28.868Z,1.50
2022-11-21T06:06:25.020Z,1.43
2022-11-21T06:08:52.082Z,2.20
2022-11-21T06:11:19.229Z,30.97
2022-11-21T06:13:46.217Z,5.07
2022-11-21T06:16:16.362Z,8.50
2022-11-21T06:18:47.388Z,7.13
2022-11-21T06:21:16.954Z,12.87
2022-11-21T06:23:45.042Z,14.20
2022-11-21T06:26:17.853Z,12.37
2022-11-21T06:28:46.165Z,3.43
2022-11-21T06:31:19.981Z,2.10
2022-11-21T06:33:47.736Z,3.20
2022-11-21T06:36:17.149Z,2.50
2022-11-21T06:38:45.462Z,2.20
2022-11-21T06:41:24.766Z,1.67
2022-11-21T06:43:51.921Z,1.40
2022-11-21T06:46:19.060Z,1.80
2022-11-21T06:48:46.278Z,2.00
2022-11-21T06:51:32.019Z,2.00
2022-11-21T06:53:59.450Z,2.23
2022-11-21T06:56:29.597Z,3.30
2022-11-21T06:58:57.583Z,2.77
2022-11-21T07:01:24.863Z,1.40
2022-11-21T07:03:52.701Z,1.20
2022-11-21T07:06:19.696Z,1.20
2022-11-21T07:08:49.719Z,1.70
2022-11-21T07:11:26.479Z,1.93
2022-11-21T07:13:53.861Z,1.53
2022-11-21T07:16:20.911Z,1.47
2022-11-21T07:18:47.881Z,1.43
2022-11-21T07:21:14.834Z,1.90
2022-11-21T07:23:41.799Z,1.90
2022-11-21T07:26:10.630Z,1.43
2022-11-21T07:28:37.885Z,1.50
2022-11-21T07:31:10.074Z,1.70
2022-11-21T07:33:40.072Z,1.77
2022-11-21T07:36:07.309Z,1.73
2022-11-21T07:38:34.291Z,1.60
2022-11-21T07:41:01.258Z,1.80
2022-11-21T07:43:28.105Z,1.33
2022-11-21T07:45:56.070Z,1.30
2022-11-21T07:48:22.989Z,1.63
2022-11-21T07:50:49.919Z,1.50
2022-11-21T07:53:16.846Z,1.33
2022-11-21T07:55:43.792Z,1.77
2022-11-21T07:58:14.980Z,1.80
2022-11-21T08:00:45.483Z,1.73
2022-11-21T08:03:13.436Z,1.80
2022-11-21T08:05:43.421Z,1.50
2022-11-21T08:08:12.602Z,1.70
2022-11-21T08:10:42.640Z,2.20
2022-11-21T08:13:10.527Z,1.90
2022-11-21T08:15:37.729Z,1.80
2022-11-21T08:18:19.207Z,1.60
2022-11-21T08:20:46.881Z,1.63
2022-11-21T08:23:14.068Z,2.27
2022-11-21T08:25:42.435Z,1.70
2022-11-21T08:28:11.674Z,1.47
2022-11-21T08:30:40.290Z,1.70
2022-11-21T08:33:07.876Z,1.83
2022-11-21T08:35:38.281Z,1.40
2022-11-21T08:38:06.351Z,1.90
2022-11-21T08:40:34.129Z,1.97
2022-11-21T08:43:07.943Z,2.40
2022-11-21T08:45:37.565Z,1.43
2022-11-21T08:48:09.542Z,1.40
2022-11-21T08:50:36.504Z,2.13
2022-11-21T08:53:03.842Z,2.20
2022-11-21T08:55:31.274Z,1.77
2022-11-21T08:57:58.698Z,2.00
2022-11-21T09:00:25.846Z,1.50
2022-11-21T09:02:52.835Z,1.70
2022-11-21T09:05:19.797Z,1.60
2022-11-21T09:07:47.554Z,1.40
2022-11-21T09:10:15.270Z,2.30
2022-11-21T09:12:42.338Z,1.43
2022-11-21T09:15:29.514Z,1.40
2022-11-21T09:18:04.245Z,1.30
2022-11-21T09:20:34.061Z,1.57
2022-11-21T09:23:09.890Z,1.60
2022-11-21T09:25:36.987Z,1.93
2022-11-21T09:28:06.424Z,1.80
2022-11-21T09:30:34.215Z,1.73
2022-11-21T09:33:12.603Z,1.60
2022-11-21T09:35:39.982Z,1.10
2022-11-21T09:38:07.172Z,1.90
2022-11-21T09:40:35.881Z,1.50
2022-11-21T09:43:48.065Z,1.70
2022-11-21T09:46:19.886Z,2.50
2022-11-21T09:48:52.457Z,1.73
2022-11-21T09:51:21.361Z,2.90
2022-11-21T09:54:07.409Z,1.97
2022-11-21T09:56:39.647Z,2.10
2022-11-21T09:59:33.740Z,2.60
2022-11-21T10:02:01.175Z,2.33
2022-11-21T10:04:28.735Z,2.77
2022-11-21T10:07:07.608Z,1.77
2022-11-21T10:10:08.895Z,1.83
2022-11-21T10:12:58.247Z,2.17
2022-11-21T10:15:57.658Z,2.43
2022-11-21T10:19:13.741Z,2.67
2022-11-21T10:21:50.406Z,2.10
2022-11-21T10:24:36.074Z,2.53
2022-11-21T10:27:41.324Z,2.33
2022-11-21T10:30:20.256Z,2.50
2022-11-21T10:32:54.793Z,3.30
2022-11-21T10:35:25.976Z,1.87
2022-11-21T10:37:56.276Z,2.40
2022-11-21T10:40:38.274Z,3.20
2022-11-21T10:43:44.073Z,2.83
2022-11-21T10:46:11.022Z,2.33
2022-11-21T10:48:38.009Z,2.13
2022-11-21T10:51:14.204Z,2.20
2022-11-21T10:54:04.583Z,2.10
2022-11-21T10:56:35.912Z,2.37
2022-11-21T10:59:30.899Z,2.43
2022-11-21T11:02:20.088Z,2.53
2022-11-21T11:04:51.977Z,2.20
2022-11-21T11:07:37.660Z,2.07
2022-11-21T11:10:28.523Z,2.53
2022-11-21T11:13:44.538Z,2.20
2022-11-21T11:16:10.744Z,2.23
2022-11-21T11:19:14.753Z,2.30
2022-11-21T11:21:46.994Z,1.53
2022-11-21T11:24:13.772Z,1.73
2022-11-21T11:26:51.440Z,2.07
2022-11-21T11:29:28.413Z,2.10
2022-11-21T11:32:00.775Z,2.57
2022-11-21T11:34:40.497Z,1.73
2022-11-21T11:37:15.197Z,2.60
2022-11-21T11:39:56.058Z,1.93
2022-11-21T11:42:59.636Z,1.90
2022-11-21T11:46:16.281Z,2.00
2022-11-21T11:49:11.495Z,1.77
2022-11-21T11:51:40.589Z,2.20
2022-11-21T11:54:29.182Z,2.10
2022-11-21T11:56:57.567Z,1.50
2022-11-21T11:59:30.152Z,2.00
2022-11-21T12:02:07.552Z,2.27
2022-11-21T12:04:57.722Z,1.63
2022-11-21T12:11:11.520Z,2.43
2022-11-21T12:13:40.218Z,2.20
2022-11-21T12:16:14.008Z,1.73
2022-11-21T12:19:05.500Z,2.13
2022-11-21T12:21:32.531Z,2.70
2022-11-21T12:24:04.331Z,2.00
2022-11-21T12:26:59.042Z,1.77
2022-11-21T12:30:21.034Z,1.70
2022-11-21T12:33:10.390Z,2.10
2022-11-21T12:36:38.469Z,1.63
2022-11-21T12:39:37.928Z,1.50
2022-11-21T12:42:37.594Z,1.90
2022-11-21T12:45:11.291Z,2.00
2022-11-21T12:48:17.566Z,2.43
2022-11-21T12:51:45.991Z,2.20
2022-11-21T12:54:39.076Z,2.00
2022-11-21T12:57:14.697Z,2.60
2022-11-21T13:00:09.789Z,2.20
2022-11-21T13:03:14.561Z,2.27
2022-11-21T13:05:47.224Z,2.03
2022-11-21T13:08:24.655Z,2.07
2022-11-21T13:11:48.470Z,1.77
2022-11-21T13:14:29.942Z,2.47
2022-11-21T13:17:25.827Z,1.60
2022-11-21T13:20:22.777Z,2.07
2022-11-21T13:23:00.800Z,2.23
2022-11-21T13:25:39.542Z,1.90
2022-11-21T13:28:18.712Z,2.10
2022-11-21T13:30:54.348Z,1.73
2022-11-21T13:33:37.205Z,2.57
2022-11-21T13:36:29.082Z,1.60
2022-11-21T13:38:58.802Z,2.27
2022-11-21T13:41:53.223Z,1.87
2022-11-21T13:44:34.649Z,1.77
2022-11-21T13:47:15.342Z,2.77
2022-11-21T13:50:30.309Z,1.97
2022-11-21T13:53:40.429Z,1.50
2022-11-21T13:56:37.528Z,1.77
2022-11-21T13:59:25.871Z,2.47
2022-11-21T14:02:26.403Z,1.80
2022-11-21T14:05:46.038Z,1.90
2022-11-21T14:08:21.042Z,1.67
2022-11-21T14:10:51.273Z,1.87
2022-11-21T14:13:31.070Z,1.93
2022-11-21T14:16:38.149Z,1.60
2022-11-21T14:19:05.912Z,1.60
2022-11-21T14:21:34.114Z,1.63
2022-11-21T14:24:14.509Z,1.87
2022-11-21T14:26:47.316Z,1.70
2022-11-21T14:29:32.303Z,1.70
2022-11-21T14:31:59.401Z,1.70
2022-11-21T14:34:28.655Z,2.23
2022-11-21T14:37:00.517Z,2.57
2022-11-21T14:39:43.718Z,1.77
2022-11-21T14:42:17.730Z,2.07
2022-11-21T14:44:44.732Z,2.73
2022-11-21T14:47:25.342Z,1.93
2022-11-21T14:49:57.025Z,2.20
2022-11-21T14:52:30.501Z,1.80
2022-11-21T14:55:29.557Z,2.13
2022-11-21T14:57:47.927Z,1.80
2022-11-21T15:03:20.899Z,1.70
2022-11-21T15:06:07.340Z,2.30
2022-11-21T15:11:39.086Z,2.60
2022-11-21T15:14:32.264Z,2.67
2022-11-21T15:17:01.465Z,3.37
2022-11-21T15:19:29.861Z,2.20
2022-11-21T15:22:00.686Z,2.90
2022-11-21T15:24:42.464Z,2.47
2022-11-21T15:27:32.610Z,3.87
2022-11-21T15:30:25.753Z,3.97
2022-11-21T15:33:16.778Z,3.73
2022-11-21T15:35:55.341Z,2.60
2022-11-21T15:38:42.848Z,3.17
2022-11-21T15:41:09.689Z,2.47
2022-11-21T15:43:43.359Z,2.80
2022-11-21T15:46:30.850Z,2.47
2022-11-21T15:49:31.003Z,3.23
2022-11-21T15:54:40.229Z,3.20
2022-11-21T15:57:09.170Z,3.90
2022-11-21T15:57:14.482Z,3.43
2022-11-21T15:59:36.056Z,2.87
2022-11-21T16:02:03.277Z,3.63
2022-11-21T16:04:30.345Z,5.50
2022-11-21T16:06:57.357Z,3.30
2022-11-21T16:09:25.144Z,3.60
2022-11-21T16:11:52.016Z,3.53
2022-11-21T16:14:18.905Z,3.67
2022-11-21T16:16:47.363Z,3.33
2022-11-21T16:19:15.982Z,4.20
2022-11-21T16:21:43.342Z,3.00
2022-11-21T16:24:10.407Z,3.83
2022-11-21T16:26:37.522Z,3.57
2022-11-21T16:29:05.689Z,3.30
2022-11-21T16:31:33.180Z,3.50
2022-11-21T16:34:00.813Z,3.40
2022-11-21T16:36:30.267Z,4.33
2022-11-21T16:39:01.760Z,4.00
2022-11-21T16:41:32.391Z,3.57
2022-11-21T16:43:59.338Z,4.20
2022-11-21T16:46:26.297Z,3.80
2022-11-21T16:49:02.221Z,4.03
2022-11-21T16:51:30.315Z,4.33
2022-11-21T16:54:01.599Z,4.30
2022-11-21T16:56:31.526Z,5.03
2022-11-21T16:58:58.477Z,12.90
2022-11-21T17:01:28.044Z,6.27
2022-11-21T17:03:55.155Z,4.53
2022-11-21T17:06:27.110Z,6.53
2022-11-21T17:08:54.209Z,6.00
2022-11-21T17:11:28.111Z,3.90
2022-11-21T17:13:57.074Z,3.90
2022-11-21T17:16:24.165Z,3.83
2022-11-21T17:18:56.935Z,3.50
2022-11-21T17:21:24.380Z,4.37
2022-11-21T17:23:51.696Z,10.80
2022-11-21T17:26:24.332Z,9.17
2022-11-21T17:29:00.563Z,9.53
2022-11-21T17:31:28.049Z,7.00
2022-11-21T17:33:59.194Z,8.03
2022-11-21T17:36:28.916Z,7.73
2022-11-21T17:38:56.235Z,8.90
2022-11-21T17:41:24.539Z,8.07
2022-11-21T17:43:56.773Z,8.17
2022-11-21T17:46:28.326Z,7.40
2022-11-21T17:48:58.368Z,4.10
2022-11-21T17:51:33.305Z,5.20
2022-11-21T17:54:01.614Z,5.13
2022-11-21T17:56:32.579Z,6.20
2022-11-21T17:59:00.279Z,5.00
2022-11-21T18:01:27.631Z,9.13
2022-11-21T18:04:01.846Z,7.67
2022-11-21T18:06:38.048Z,12.10
2022-11-21T18:09:07.590Z,6.83
2022-11-21T18:11:39.855Z,7.47
2022-11-21T18:14:09.803Z,8.70
2022-11-21T18:16:39.353Z,5.00
2022-11-21T18:19:07.094Z,5.67
2022-11-21T18:21:37.587Z,6.43
2022-11-21T18:24:04.751Z,3.97
2022-11-21T18:26:35.690Z,4.67
2022-11-21T18:29:35.786Z,4.20
2022-11-21T18:31:53.254Z,3.90
2022-11-21T18:34:20.351Z,3.77
2022-11-21T18:36:47.749Z,5.40
2022-11-21T18:39:27.104Z,4.90
2022-11-21T18:41:54.086Z,8.53
2022-11-21T18:44:22.485Z,7.20
2022-11-21T18:46:50.213Z,4.80
2022-11-21T18:49:17.971Z,3.03
2022-11-21T18:51:45.134Z,2.97
2022-11-21T18:54:12.956Z,3.90
2022-11-21T18:56:40.380Z,3.73
2022-11-21T18:59:08.000Z,4.77
2022-11-21T19:01:36.865Z,4.43
2022-11-21T19:04:04.285Z,3.80
2022-11-21T19:06:31.834Z,3.00
2022-11-21T19:08:59.187Z,3.07
2022-11-21T19:11:29.379Z,2.13
2022-11-21T19:13:58.093Z,2.73
2022-11-21T19:16:31.078Z,2.83
2022-11-21T19:21:45.801Z,2.43
2022-11-21T19:24:14.455Z,3.30
2022-11-21T19:26:42.697Z,10.70
2022-11-21T19:29:10.585Z,10.07
2022-11-21T19:31:44.090Z,7.23
2022-11-21T19:34:14.138Z,6.57
2022-11-21T19:36:41.602Z,4.97
2022-11-21T19:39:08.988Z,3.13
2022-11-21T19:41:36.088Z,4.50
2022-11-21T19:44:03.781Z,3.90
2022-11-21T19:46:34.971Z,2.90
2022-11-21T19:49:02.605Z,2.67
2022-11-21T19:51:36.097Z,3.47
2022-11-21T19:54:07.849Z,3.33
2022-11-21T19:56:35.877Z,3.60
2022-11-21T19:59:03.008Z,2.80
2022-11-21T20:01:32.515Z,2.97
2022-11-21T20:04:02.659Z,3.07
2022-11-21T20:06:36.277Z,3.10
2022-11-21T20:09:14.643Z,2.97
2022-11-21T20:11:45.198Z,3.17
2022-11-21T20:14:21.890Z,3.33
2022-11-21T20:16:51.537Z,3.67
2022-11-21T20:19:21.387Z,5.10
2022-11-21T20:21:48.511Z,5.53
2022-11-21T20:24:17.138Z,4.83
2022-11-21T20:26:45.221Z,4.90
2022-11-21T20:29:15.967Z,5.30
2022-11-21T20:31:43.263Z,6.63
2022-11-21T20:34:13.933Z,5.13
2022-11-21T20:36:41.954Z,5.67
2022-11-21T20:39:15.475Z,7.80
2022-11-21T20:41:42.645Z,7.20
2022-11-21T20:45:07.032Z,5.93
2022-11-21T20:47:02.020Z,4.17
2022-11-21T20:49:32.225Z,4.50
2022-11-21T20:54:48.538Z,3.63
2022-11-21T20:57:15.847Z,3.20
2022-11-21T20:59:43.290Z,3.93
2022-11-21T21:02:14.331Z,3.77
2022-11-21T21:04:41.898Z,3.57
2022-11-21T21:07:09.096Z,3.20
2022-11-21T21:09:36.079Z,3.30
2022-11-21T21:12:03.203Z,3.33
2022-11-21T21:14:30.172Z,3.30
2022-11-21T21:16:57.235Z,3.97
2022-11-21T21:19:24.138Z,3.17
2022-11-21T21:21:51.109Z,2.90
2022-11-21T21:24:18.346Z,3.33
2022-11-21T21:26:47.661Z,3.17
2022-11-21T21:29:19.491Z,3.10
2022-11-21T21:31:51.060Z,3.13
2022-11-21T21:34:20.847Z,3.27
2022-11-21T21:36:48.697Z,3.70
2022-11-21T21:39:15.744Z,3.83
2022-11-21T21:41:46.031Z,3.73
2022-11-21T21:44:14.088Z,3.00
2022-11-21T21:46:41.166Z,3.33
2022-11-21T21:49:08.309Z,3.03
2022-11-21T21:51:37.126Z,2.90
2022-11-21T21:54:04.952Z,3.10
2022-11-21T21:56:31.899Z,3.47
2022-11-21T21:58:59.531Z,3.40
2022-11-21T22:01:29.890Z,3.70
2022-11-21T22:04:00.384Z,3.20
2022-11-21T22:06:27.582Z,2.50
2022-11-21T22:08:55.945Z,3.13
2022-11-21T22:11:29.144Z,2.60
2022-11-21T22:14:02.477Z,2.70
2022-11-21T22:16:30.502Z,3.10
2022-11-21T22:18:58.041Z,2.40
2022-11-21T22:21:35.108Z,2.90
2022-11-21T22:24:38.778Z,3.13
2022-11-21T22:26:59.189Z,3.17
2022-11-21T22:29:26.176Z,2.63
2022-11-21T22:31:53.167Z,2.97
2022-11-21T22:34:20.271Z,2.67
2022-11-21T22:36:47.473Z,3.23
2022-11-21T22:39:15.577Z,2.80
2022-11-21T22:41:42.458Z,3.70
2022-11-21T22:44:09.507Z,3.50
2022-11-21T22:46:37.475Z,2.40
2022-11-21T22:49:04.369Z,2.63
2022-11-21T22:51:31.347Z,2.73
2022-11-21T22:53:58.306Z,2.90
2022-11-21T22:56:26.553Z,2.97
2022-11-21T22:58:54.145Z,2.63
2022-11-21T23:01:24.630Z,2.93
2022-11-21T23:03:52.481Z,2.87
2022-11-21T23:06:23.733Z,3.03
2022-11-21T23:08:52.705Z,2.80
2022-11-21T23:11:27.470Z,2.70
2022-11-21T23:13:55.896Z,3.00
2022-11-21T23:16:23.116Z,3.50
2022-11-21T23:18:53.515Z,3.17
2022-11-21T23:21:21.369Z,3.00
2022-11-21T23:23:48.458Z,3.33
2022-11-21T23:26:15.679Z,2.83
2022-11-21T23:28:42.738Z,3.10
2022-11-21T23:31:10.771Z,3.23
2022-11-21T23:33:37.714Z,2.97
2022-11-21T23:36:05.101Z,3.27
2022-11-21T23:38:32.232Z,4.33
2022-11-21T23:40:59.139Z,4.00
2022-11-21T23:43:27.256Z,4.23
2022-11-21T23:45:54.905Z,4.23
2022-11-21T23:48:24.104Z,3.80
2022-11-21T23:50:51.537Z,4.60
2022-11-21T23:53:20.122Z,4.10
2022-11-21T23:55:47.473Z,3.80
2022-11-21T23:58:15.341Z,3.50
